Time;durP1;ratioP1;P1;durP2;ratioP2;P2;SDS_P1;SDS_P2;PMS_P1;PMS_P2;Temp;Humidity;BMP_temperature;BMP_pressure;BME280_temperature;BME280_humidity;BME280_pressure;Samples;Min_cycle;Max_cycle;Signal;HPM_P1;HPM_P2
2023/10/09 00:01:44;;;;;;;12.43;4.63;;;13.00;99.90;;;;;;5094587;28;20058;-22
2023/10/09 00:04:11;;;;;;;11.10;5.15;;;13.10;99.90;;;;;;5096043;28;20050;-23
2023/10/09 00:06:37;;;;;;;10.10;5.78;;;13.00;99.90;;;;;;5095415;28;20125;-22
2023/10/09 00:12:00;;;;;;;11.50;5.63;;;13.10;99.90;;;;;;5086088;28;20058;-22
2023/10/09 00:14:33;;;;;;;11.60;5.15;;;13.00;99.90;;;;;;5094150;28;20065;-22
2023/10/09 00:17:17;;;;;;;14.13;5.63;;;13.10;99.90;;;;;;5095584;28;20044;-22
2023/10/09 00:19:47;;;;;;;11.73;5.35;;;13.10;99.90;;;;;;5095187;28;20084;-22
2023/10/09 00:22:26;;;;;;;11.73;5.15;;;13.10;99.90;;;;;;5095688;28;20043;-22
2023/10/09 00:25:11;;;;;;;12.57;5.53;;;13.00;99.90;;;;;;5094796;28;20562;-22
2023/10/09 00:27:42;;;;;;;10.48;5.80;;;13.00;99.90;;;;;;5095884;28;20052;-22
2023/10/09 00:30:21;;;;;;;11.10;5.20;;;13.10;99.90;;;;;;5095209;28;20043;-22
2023/10/09 00:33:03;;;;;;;13.88;6.53;;;13.10;99.90;;;;;;5094792;28;20132;-22
2023/10/09 00:38:34;;;;;;;12.00;6.28;;;13.10;99.90;;;;;;5094838;28;20048;-22
2023/10/09 00:41:09;;;;;;;15.70;7.03;;;13.20;99.90;;;;;;5092932;28;20052;-22
2023/10/09 00:43:36;;;;;;;13.52;5.97;;;13.10;99.90;;;;;;5094686;28;20051;-23
2023/10/09 00:46:08;;;;;;;14.13;6.97;;;13.20;99.90;;;;;;5094097;28;20040;-22
2023/10/09 00:48:40;;;;;;;13.77;7.40;;;13.10;99.90;;;;;;5095474;28;20105;-22
2023/10/09 00:51:18;;;;;;;14.70;7.15;;;13.10;99.90;;;;;;5094495;28;20057;-22
2023/10/09 00:53:50;;;;;;;14.98;7.05;;;13.20;99.90;;;;;;5095117;28;20052;-22
2023/10/09 00:58:56;;;;;;;22.70;8.25;;;13.20;99.90;;;;;;5094342;28;20502;-22
2023/10/09 01:01:34;;;;;;;20.33;8.07;;;13.20;99.90;;;;;;5093414;28;20048;-22
2023/10/09 01:04:12;;;;;;;15.02;7.30;;;13.20;99.90;;;;;;5093726;28;20134;-22
2023/10/09 01:06:45;;;;;;;23.73;8.63;;;13.20;99.90;;;;;;5094590;28;20390;-22
2023/10/09 01:09:13;;;;;;;18.38;7.90;;;13.20;99.90;;;;;;5095139;28;20054;-22
2023/10/09 01:12:03;;;;;;;19.13;9.43;;;13.20;99.90;;;;;;5093867;28;20051;-22
2023/10/09 01:14:35;;;;;;;22.48;10.18;;;13.20;99.90;;;;;;5094196;28;20040;-22
2023/10/09 01:17:02;;;;;;;25.92;10.52;;;13.30;99.90;;;;;;5095051;28;20080;-22
2023/10/09 01:19:30;;;;;;;25.88;11.50;;;13.30;99.90;;;;;;5094114;28;20445;-22
2023/10/09 01:22:04;;;;;;;25.20;11.25;;;13.20;99.90;;;;;;5094079;28;20474;-22
2023/10/09 01:24:31;;;;;;;24.65;11.50;;;13.20;99.90;;;;;;5093746;28;20560;-22
2023/10/09 01:26:59;;;;;;;29.33;11.43;;;13.20;99.90;;;;;;5094022;28;20109;-22
2023/10/09 01:29:29;;;;;;;29.27;13.70;;;13.10;99.90;;;;;;5093973;28;20455;-22
2023/10/09 01:31:56;;;;;;;33.03;12.93;;;13.20;99.90;;;;;;5094401;28;20126;-22
2023/10/09 01:39:48;;;;;;;31.67;13.48;;;13.10;99.90;;;;;;5093820;28;20056;-22
2023/10/09 01:42:27;;;;;;;31.50;13.93;;;13.10;99.90;;;;;;5093115;28;20056;-22
2023/10/09 01:44:53;;;;;;;36.05;15.55;;;13.10;99.90;;;;;;5092873;28;20058;-22
2023/10/09 01:47:21;;;;;;;36.08;15.20;;;13.00;99.90;;;;;;5093801;28;20040;-22
2023/10/09 01:49:52;;;;;;;37.92;14.40;;;13.10;99.90;;;;;;5093809;28;20083;-22
2023/10/09 01:52:18;;;;;;;29.67;14.65;;;13.10;99.90;;;;;;5093527;28;20480;-22
2023/10/09 01:54:51;;;;;;;35.08;16.15;;;13.00;99.90;;;;;;5093699;28;20056;-22
2023/10/09 01:57:25;;;;;;;35.00;15.55;;;13.00;99.90;;;;;;5094160;28;20040;-21
2023/10/09 01:59:53;;;;;;;41.13;17.52;;;13.00;99.90;;;;;;5097022;28;20509;-22
2023/10/09 02:02:34;;;;;;;46.13;18.10;;;13.10;99.90;;;;;;5098620;28;20127;-22
2023/10/09 02:05:26;;;;;;;35.70;17.00;;;13.10;99.90;;;;;;5096632;28;20076;-22
2023/10/09 02:07:51;;;;;;;38.03;17.70;;;13.10;99.90;;;;;;5097812;28;20185;-22
2023/10/09 02:13:06;;;;;;;46.88;18.90;;;13.10;99.90;;;;;;5097689;28;20051;-22
2023/10/09 02:15:51;;;;;;;43.83;19.75;;;13.10;99.90;;;;;;5097937;28;20371;-22
2023/10/09 02:23:46;;;;;;;42.08;18.95;;;13.10;99.90;;;;;;5097401;28;20051;-22
2023/10/09 02:26:27;;;;;;;46.60;21.23;;;13.10;99.90;;;;;;5098007;28;20044;-22
2023/10/09 02:28:59;;;;;;;42.25;20.23;;;13.10;99.90;;;;;;5097883;28;20040;-22
2023/10/09 02:31:35;;;;;;;49.03;19.85;;;13.20;99.90;;;;;;5097426;28;20043;-22
2023/10/09 02:34:05;;;;;;;46.53;20.10;;;13.10;99.90;;;;;;5081206;28;20062;-22
2023/10/09 02:36:31;;;;;;;51.30;22.73;;;13.10;99.90;;;;;;5095949;28;20047;-22
2023/10/09 02:38:57;;;;;;;50.97;23.00;;;13.20;99.90;;;;;;5097623;28;20040;-22
2023/10/09 02:41:28;;;;;;;53.90;24.40;;;13.20;99.90;;;;;;5097594;28;20039;-22
2023/10/09 02:43:55;;;;;;;54.88;24.35;;;13.20;99.90;;;;;;5097030;28;20502;-22
2023/10/09 02:46:28;;;;;;;60.85;24.75;;;13.20;99.90;;;;;;5096988;28;20044;-22
2023/10/09 02:48:56;;;;;;;61.80;25.77;;;13.30;99.90;;;;;;5095987;28;20485;-22
2023/10/09 02:53:57;;;;;;;61.00;25.98;;;13.40;99.90;;;;;;5096806;28;20048;-22
2023/10/09 02:56:24;;;;;;;67.93;29.05;;;13.40;99.90;;;;;;5097965;28;20488;-22
2023/10/09 02:58:51;;;;;;;68.20;28.83;;;13.40;99.90;;;;;;5095714;28;20051;-22
2023/10/09 03:01:17;;;;;;;69.85;28.15;;;13.50;99.90;;;;;;5096349;28;20486;-22
2023/10/09 03:03:47;;;;;;;69.88;31.55;;;13.60;99.90;;;;;;5096633;28;20051;-22
2023/10/09 03:06:19;;;;;;;69.15;29.52;;;13.70;99.90;;;;;;5096331;28;20047;-22
2023/10/09 03:08:47;;;;;;;59.22;28.75;;;13.70;99.90;;;;;;5097080;28;20067;-22
2023/10/09 03:11:14;;;;;;;66.85;29.13;;;13.80;99.90;;;;;;5096269;28;20131;-22
2023/10/09 03:13:44;;;;;;;68.15;31.15;;;14.00;99.90;;;;;;5096405;28;20048;-23
2023/10/09 03:16:18;;;;;;;58.78;28.67;;;14.20;99.90;;;;;;5096369;28;20056;-21
2023/10/09 03:18:49;;;;;;;66.45;32.30;;;14.20;99.90;;;;;;5096461;28;20081;-22
2023/10/09 03:21:16;;;;;;;67.82;29.92;;;14.40;99.90;;;;;;5096346;28;20052;-22
2023/10/09 03:23:43;;;;;;;75.05;32.25;;;14.40;99.90;;;;;;5097080;28;20040;-22
2023/10/09 03:26:10;;;;;;;54.90;29.65;;;14.70;99.90;;;;;;5096242;28;20040;-22
2023/10/09 03:28:36;;;;;;;57.90;28.30;;;14.80;99.90;;;;;;5096196;28;20044;-22
2023/10/09 03:31:02;;;;;;;51.58;28.25;;;15.00;99.90;;;;;;5094905;28;20047;-21
2023/10/09 03:33:38;;;;;;;45.75;24.27;;;14.90;99.90;;;;;;5096929;28;20040;-21
2023/10/09 03:36:09;;;;;;;48.03;25.90;;;15.00;99.90;;;;;;5095912;28;20509;-22
2023/10/09 03:38:36;;;;;;;44.58;22.40;;;15.10;99.90;;;;;;5096015;28;20043;-22
2023/10/09 03:41:06;;;;;;;49.20;25.67;;;15.10;99.90;;;;;;5096215;28;20393;-22
2023/10/09 03:43:40;;;;;;;45.90;24.17;;;15.10;99.90;;;;;;5095753;28;20121;-21
2023/10/09 03:46:21;;;;;;;46.22;25.02;;;15.00;99.90;;;;;;5096505;28;20131;-22
2023/10/09 03:48:56;;;;;;;46.70;24.48;;;15.00;99.90;;;;;;5095799;28;20052;-21
2023/10/09 03:51:23;;;;;;;41.83;22.17;;;15.10;99.90;;;;;;5095962;28;20052;-22
2023/10/09 03:53:50;;;;;;;43.13;23.05;;;15.10;99.90;;;;;;5095671;28;20056;-22
2023/10/09 03:56:17;;;;;;;45.88;23.73;;;15.20;99.90;;;;;;5095395;28;20567;-22
2023/10/09 03:58:49;;;;;;;44.10;25.20;;;15.10;99.90;;;;;;5096051;28;20101;-22
2023/10/09 04:01:29;;;;;;;54.80;25.55;;;15.20;99.90;;;;;;5095832;28;20060;-22
2023/10/09 04:04:00;;;;;;;45.40;23.92;;;15.00;99.90;;;;;;5095765;28;20410;-21
2023/10/09 04:06:32;;;;;;;39.67;24.40;;;15.10;99.90;;;;;;5096247;28;20113;-22
2023/10/09 04:12:12;;;;;;;46.03;23.60;;;15.10;99.90;;;;;;5096114;28;20436;-22
2023/10/09 04:14:54;;;;;;;44.10;21.73;;;15.00;99.90;;;;;;5095502;28;20055;-22
2023/10/09 04:17:33;;;;;;;41.92;22.02;;;15.10;99.90;;;;;;5095364;28;20134;-21
2023/10/09 04:22:50;;;;;;;46.35;22.70;;;15.10;99.90;;;;;;5094541;28;20051;-21
2023/10/09 04:25:26;;;;;;;41.65;23.35;;;15.10;99.90;;;;;;5095457;28;20401;-21
2023/10/09 04:27:57;;;;;;;43.67;21.77;;;15.10;99.90;;;;;;5095110;28;20081;-21
2023/10/09 04:30:25;;;;;;;44.78;22.17;;;15.10;99.90;;;;;;5095035;28;20105;-21
2023/10/09 04:32:55;;;;;;;44.10;23.83;;;14.90;99.90;;;;;;5095171;28;20047;-21
2023/10/09 04:35:23;;;;;;;38.47;20.13;;;15.10;99.90;;;;;;5094875;28;20524;-21
2023/10/09 04:38:07;;;;;;;34.35;19.63;;;15.10;99.90;;;;;;5094856;28;20423;-21
2023/10/09 04:43:09;;;;;;;38.15;20.25;;;14.90;99.90;;;;;;5095577;28;20424;-21
2023/10/09 04:48:10;;;;;;;36.63;17.83;;;15.20;99.90;;;;;;5095514;28;20056;-21
2023/10/09 04:51:10;;;;;;;33.08;17.35;;;15.10;99.90;;;;;;5094419;28;20063;-21
2023/10/09 04:53:22;;;;;;;32.78;16.85;;;15.40;99.90;;;;;;5094840;28;20087;-21
2023/10/09 04:55:54;;;;;;;28.67;17.02;;;15.30;99.90;;;;;;5093555;28;20386;-21
2023/10/09 04:58:25;;;;;;;32.92;16.88;;;15.40;99.90;;;;;;5094980;28;20040;-21
2023/10/09 05:03:42;;;;;;;24.80;15.68;;;15.10;99.90;;;;;;5095003;28;20063;-21
2023/10/09 05:08:54;;;;;;;31.48;14.80;;;15.50;99.90;;;;;;5094293;28;20094;-21
2023/10/09 05:11:53;;;;;;;29.02;15.65;;;15.10;99.90;;;;;;5094149;28;20040;-21
2023/10/09 05:14:26;;;;;;;30.65;14.43;;;15.40;99.90;;;;;;5094544;28;20500;-21
2023/10/09 05:17:01;;;;;;;30.52;15.07;;;15.50;99.90;;;;;;5060610;28;20085;-21
2023/10/09 05:19:54;;;;;;;24.95;12.13;;;15.50;99.90;;;;;;5094158;28;20080;-21
2023/10/09 05:22:29;;;;;;;21.60;11.82;;;15.40;99.90;;;;;;5094085;28;20477;-21
2023/10/09 05:24:58;;;;;;;22.80;13.18;;;15.20;99.90;;;;;;5094385;28;20428;-21
2023/10/09 05:27:45;;;;;;;24.23;12.55;;;15.40;99.90;;;;;;5094007;28;20090;-21
2023/10/09 05:30:24;;;;;;;28.17;14.38;;;15.40;99.90;;;;;;5093579;28;20048;-21
2023/10/09 05:33:27;;;;;;;27.10;12.77;;;15.60;99.90;;;;;;5093688;28;20086;-21
2023/10/09 05:36:05;;;;;;;19.95;10.93;;;15.50;99.90;;;;;;5093750;28;20559;-20
2023/10/09 05:38:30;;;;;;;25.05;11.13;;;15.00;99.90;;;;;;5094099;28;20054;-20
2023/10/09 05:41:45;;;;;;;28.55;12.88;;;15.50;99.90;;;;;;5093802;28;20036;-20
2023/10/09 05:46:35;;;;;;;24.80;11.43;;;15.00;99.90;;;;;;5094656;28;20048;-21
2023/10/09 05:49:09;;;;;;;24.60;11.65;;;15.60;99.90;;;;;;5093264;28;20043;-21
2023/10/09 05:51:41;;;;;;;22.90;10.73;;;15.50;99.90;;;;;;5092399;28;20405;-21
2023/10/09 05:58:22;;;;;;;18.60;9.23;;;15.60;99.90;;;;;;5093566;28;20052;-20
2023/10/09 06:08:05;;;;;;;21.92;9.93;;;15.60;99.90;;;;;;5093239;28;20448;-21
2023/10/09 06:10:40;;;;;;;19.73;9.20;;;15.70;99.90;;;;;;5093852;28;20125;-20
2023/10/09 06:13:06;;;;;;;21.55;9.48;;;15.30;99.90;;;;;;5094406;28;20127;-20
2023/10/09 06:21:08;;;;;;;22.85;9.95;;;15.20;99.90;;;;;;5093759;28;20040;-20
2023/10/09 06:26:24;;;;;;;19.60;7.70;;;15.80;99.90;;;;;;5092462;28;20048;-21
2023/10/09 06:29:14;;;;;;;22.42;8.77;;;15.70;99.90;;;;;;5094033;28;20052;-20
2023/10/09 06:34:32;;;;;;;26.17;9.25;;;15.20;99.90;;;;;;5093358;28;20134;-21
2023/10/09 06:37:17;;;;;;;21.73;10.30;;;15.80;99.90;;;;;;5092359;28;20059;-21
2023/10/09 06:42:33;;;;;;;28.70;9.45;;;15.20;99.90;;;;;;5092323;28;20379;-20
2023/10/09 06:45:07;;;;;;;21.55;8.57;;;15.70;99.90;;;;;;5095032;28;20047;-20
2023/10/09 06:47:44;;;;;;;20.42;8.65;;;15.20;99.90;;;;;;5096886;28;20052;-21
2023/10/09 06:52:58;;;;;;;21.00;9.05;;;15.50;99.90;;;;;;5096844;28;20531;-22
2023/10/09 06:58:15;;;;;;;22.67;9.48;;;15.10;99.90;;;;;;5097048;28;20048;-22
2023/10/09 07:03:32;;;;;;;16.73;8.77;;;15.10;99.90;;;;;;5096045;28;20052;-22
2023/10/09 07:06:09;;;;;;;20.17;8.60;;;15.60;99.90;;;;;;5095958;28;20567;-21
2023/10/09 07:08:54;;;;;;;26.73;9.02;;;15.10;99.90;;;;;;5096652;28;20039;-22
2023/10/09 07:16:59;;;;;;;22.92;8.68;;;15.60;99.90;;;;;;5096469;28;20063;-22
2023/10/09 07:24:57;;;;;;;22.23;8.35;;;15.40;99.90;;;;;;5095985;28;20469;-22
2023/10/09 07:27:48;;;;;;;19.92;8.50;;;16.00;99.90;;;;;;5096864;28;20044;-22
2023/10/09 07:35:47;;;;;;;22.75;9.10;;;15.20;99.90;;;;;;5097197;28;20048;-22
2023/10/09 07:38:19;;;;;;;20.73;8.57;;;16.10;99.90;;;;;;5096616;28;20048;-22
2023/10/09 07:44:19;;;;;;;24.83;9.20;;;15.30;99.90;;;;;;5095629;28;20478;-23
2023/10/09 07:46:32;;;;;;;22.38;9.30;;;15.50;99.90;;;;;;5093436;28;20105;-22
2023/10/09 07:49:08;;;;;;;26.50;10.18;;;16.00;99.90;;;;;;5096439;28;20130;-23
2023/10/09 07:51:35;;;;;;;26.08;8.50;;;15.40;99.90;;;;;;5095568;28;20135;-23
2023/10/09 07:54:07;;;;;;;23.27;8.85;;;16.10;99.90;;;;;;5095999;28;20040;-23
2023/10/09 07:56:46;;;;;;;24.73;9.23;;;16.10;99.90;;;;;;5096156;28;20040;-24
2023/10/09 07:59:19;;;;;;;31.88;9.10;;;16.00;99.90;;;;;;5094650;28;20436;-23
2023/10/09 08:02:02;;;;;;;21.17;8.32;;;16.20;99.90;;;;;;5094901;28;20139;-24
2023/10/09 08:04:39;;;;;;;19.67;8.57;;;15.20;99.90;;;;;;5095510;28;20044;-22
2023/10/09 08:07:19;;;;;;;13.48;6.95;;;15.40;99.90;;;;;;5095681;28;20055;-22
2023/10/09 08:11:34;;;;;;;20.92;8.27;;;15.90;99.90;;;;;;5095433;28;20504;-22
2023/10/09 08:18:03;;;;;;;21.95;9.70;;;15.40;99.90;;;;;;5093981;28;20056;-22
2023/10/09 08:21:19;;;;;;;21.27;8.57;;;16.20;99.90;;;;;;5095824;28;20393;-22
2023/10/09 08:23:29;;;;;;;30.25;8.52;;;15.30;99.90;;;;;;5093841;28;20043;-22
2023/10/09 08:26:12;;;;;;;26.35;8.70;;;16.30;99.90;;;;;;5095371;28;20478;-22
2023/10/09 08:28:45;;;;;;;;;;;16.30;99.90;;;;;;5095778;28;20055;-24
2023/10/09 08:31:19;;;;;;;21.60;8.95;;;15.60;99.90;;;;;;5095519;28;19928;-24
2023/10/09 08:33:56;;;;;;;21.33;7.85;;;15.30;99.90;;;;;;5095493;28;20048;-24
2023/10/09 08:36:36;;;;;;;33.58;9.80;;;15.70;99.90;;;;;;5094695;28;20048;-24
2023/10/09 08:39:25;;;;;;;21.13;8.93;;;16.50;99.90;;;;;;5094863;28;20478;-24
2023/10/09 08:41:52;;;;;;;17.17;7.55;;;15.90;99.90;;;;;;5094460;28;20495;-24
2023/10/09 08:44:23;;;;;;;24.35;9.05;;;16.50;99.90;;;;;;5094086;28;20052;-26
2023/10/09 08:46:50;;;;;;;23.25;8.95;;;15.40;99.90;;;;;;5077168;28;20044;-26
2023/10/09 08:49:17;;;;;;;23.55;9.05;;;16.10;99.90;;;;;;5094637;28;20509;-27
2023/10/09 08:51:46;;;;;;;22.88;7.63;;;15.40;99.90;;;;;;5094335;28;20509;-25
2023/10/09 08:54:14;;;;;;;23.67;9.05;;;16.50;99.90;;;;;;5094605;28;20490;-25
2023/10/09 08:56:49;;;;;;;22.15;8.90;;;16.80;99.90;;;;;;5077029;28;20389;-24
2023/10/09 08:59:18;;;;;;;29.48;10.02;;;16.80;99.90;;;;;;5094387;28;20580;-27
2023/10/09 09:01:49;;;;;;;18.35;7.85;;;16.80;99.90;;;;;;5094058;28;20425;-24
2023/10/09 09:04:40;;;;;;;18.58;6.95;;;15.30;99.90;;;;;;5094460;28;20083;-23
2023/10/09 09:07:23;;;;;;;24.48;8.27;;;16.10;99.90;;;;;;5093830;28;20055;-23
2023/10/09 09:10:03;;;;;;;22.35;8.73;;;16.70;99.90;;;;;;5093189;28;20113;-23
2023/10/09 09:12:37;;;;;;;21.92;7.85;;;15.40;99.90;;;;;;5076178;28;20482;-24
2023/10/09 09:15:04;;;;;;;19.77;7.82;;;16.90;99.90;;;;;;5093781;28;20051;-24
2023/10/09 09:17:34;;;;;;;25.52;9.68;;;15.90;99.90;;;;;;5094464;28;20134;-24
2023/10/09 09:20:23;;;;;;;26.20;10.82;;;15.40;99.90;;;;;;5093713;28;20039;-26
2023/10/09 09:22:58;;;;;;;27.98;9.82;;;15.80;99.90;;;;;;5076059;28;20075;-26
2023/10/09 09:25:38;;;;;;;18.40;7.47;;;16.00;99.90;;;;;;5094833;28;20135;-26
2023/10/09 09:28:12;;;;;;;19.13;8.50;;;16.30;99.90;;;;;;5094923;28;20452;-27
2023/10/09 09:30:40;;;;;;;30.23;7.80;;;15.80;99.90;;;;;;5094032;28;20051;-28
2023/10/09 09:33:26;;;;;;;25.13;8.35;;;15.80;99.90;;;;;;5093941;28;20043;-27
2023/10/09 09:36:13;;;;;;;19.50;6.90;;;15.70;99.90;;;;;;5093033;28;20048;-27
2023/10/09 09:38:42;;;;;;;21.35;7.88;;;17.00;99.90;;;;;;5094796;28;20076;-27
2023/10/09 09:41:09;;;;;;;21.58;8.25;;;17.30;99.90;;;;;;5092894;28;20051;-27
2023/10/09 09:43:36;;;;;;;21.13;6.55;;;15.90;99.90;;;;;;5092639;28;20059;-27
2023/10/09 09:46:07;;;;;;;13.68;5.85;;;16.50;99.90;;;;;;5094669;28;20048;-28
2023/10/09 09:48:44;;;;;;;22.70;7.00;;;15.80;99.90;;;;;;5093866;28;20088;-27
2023/10/09 09:51:14;;;;;;;17.63;6.30;;;17.30;99.90;;;;;;5093714;28;20059;-26
2023/10/09 09:53:40;;;;;;;19.58;6.57;;;15.80;99.90;;;;;;5075571;28;20456;-25
2023/10/09 09:56:07;;;;;;;11.15;5.07;;;16.40;99.90;;;;;;5092486;28;20052;-25
2023/10/09 09:58:44;;;;;;;14.88;5.55;;;17.20;99.90;;;;;;5093640;28;20059;-25
2023/10/09 10:01:16;;;;;;;14.82;5.47;;;16.40;99.90;;;;;;5092616;28;20105;-24
2023/10/09 10:03:47;;;;;;;19.98;6.20;;;16.00;99.90;;;;;;5093987;28;20125;-24
2023/10/09 10:06:14;;;;;;;22.33;5.70;;;16.40;99.90;;;;;;5093640;28;20048;-24
2023/10/09 10:08:43;;;;;;;16.33;5.78;;;16.60;99.90;;;;;;5093636;28;20048;-24
2023/10/09 10:11:51;;;;;;;15.85;5.65;;;16.10;99.90;;;;;;5093517;28;20044;-24
2023/10/09 10:14:38;;;;;;;16.90;5.15;;;17.20;99.90;;;;;;5093596;28;20052;-23
2023/10/09 10:17:21;;;;;;;14.82;6.53;;;16.40;99.90;;;;;;5093051;28;20051;-23
2023/10/09 10:20:31;;;;;;;14.55;5.53;;;15.70;99.90;;;;;;5094004;28;20048;-23
2023/10/09 10:23:19;;;;;;;19.05;6.10;;;15.80;99.90;;;;;;5095564;28;20135;-23
2023/10/09 10:25:58;;;;;;;14.00;5.90;;;15.80;99.90;;;;;;5092123;28;20056;-23
2023/10/09 10:28:28;;;;;;;19.73;7.35;;;17.20;99.90;;;;;;5097377;28;20051;-23
2023/10/09 10:30:55;;;;;;;15.82;6.20;;;16.20;99.90;;;;;;5079046;28;20063;-23
2023/10/09 10:33:25;;;;;;;13.25;5.35;;;16.70;99.90;;;;;;5097259;28;20130;-22
2023/10/09 10:38:33;;;;;;;13.18;5.32;;;17.10;99.90;;;;;;5097190;28;20048;-23
2023/10/09 10:41:12;;;;;;;13.30;5.00;;;16.80;99.90;;;;;;5097505;28;20410;-23
2023/10/09 10:51:40;;;;;;;15.45;4.47;;;17.10;99.90;;;;;;5096980;28;20052;-22
2023/10/09 10:56:52;;;;;;;23.13;7.25;;;16.70;99.90;;;;;;5096862;28;20056;-22
2023/10/09 10:59:25;;;;;;;18.23;5.72;;;16.00;99.90;;;;;;5096727;28;20047;-21
2023/10/09 11:07:09;;;;;;;18.58;6.70;;;16.80;99.90;;;;;;5097234;28;20135;-22
2023/10/09 11:12:42;;;;;;;19.35;6.35;;;16.40;99.90;;;;;;5096193;28;20048;-22
2023/10/09 11:15:18;;;;;;;18.38;6.38;;;15.80;99.90;;;;;;5097160;28;20047;-22
2023/10/09 11:17:45;;;;;;;23.65;5.93;;;16.70;99.90;;;;;;5096360;28;20477;-23
2023/10/09 11:20:26;;;;;;;18.85;6.00;;;16.70;99.90;;;;;;5096647;28;20093;-24
2023/10/09 11:25:52;;;;;;;23.45;6.22;;;15.30;99.90;;;;;;5096313;28;20131;-25
2023/10/09 11:31:17;;;;;;;23.30;6.07;;;15.50;99.90;;;;;;5082217;28;20055;-28
2023/10/09 11:33:53;;;;;;;18.77;5.78;;;16.60;99.90;;;;;;5096689;28;20040;-28
2023/10/09 11:36:32;;;;;;;13.48;5.40;;;15.30;99.90;;;;;;5095131;28;20052;-28
2023/10/09 11:39:17;;;;;;;14.52;4.82;;;15.40;99.90;;;;;;5079302;28;20040;-28
2023/10/09 11:41:44;;;;;;;12.77;3.92;;;16.10;99.90;;;;;;5096029;28;20040;-27
2023/10/09 11:44:23;;;;;;;12.80;5.07;;;16.10;99.90;;;;;;5095922;28;20044;-28
2023/10/09 11:47:14;;;;;;;14.32;3.35;;;16.00;99.90;;;;;;5095628;28;20490;-27
2023/10/09 11:49:56;;;;;;;10.07;3.58;;;16.10;99.90;;;;;;5095689;28;20363;-27
2023/10/09 11:54:58;;;;;;;11.45;2.90;;;16.20;99.90;;;;;;5094919;28;20391;-26
2023/10/09 11:57:30;;;;;;;15.45;4.38;;;16.70;99.90;;;;;;5094449;28;20044;-27
2023/10/09 12:00:00;;;;;;;10.95;3.58;;;16.70;99.90;;;;;;5095467;28;20474;-26
2023/10/09 12:02:27;;;;;;;10.93;3.47;;;16.40;99.90;;;;;;5095578;28;20052;-26
2023/10/09 12:04:57;;;;;;;13.93;4.00;;;16.60;99.90;;;;;;5095179;28;20444;-24
2023/10/09 12:07:25;;;;;;;9.35;3.55;;;16.90;99.90;;;;;;5094536;28;20047;-24
2023/10/09 12:09:56;;;;;;;11.95;3.55;;;16.80;99.90;;;;;;5094459;28;20056;-26
2023/10/09 12:12:26;;;;;;;9.48;4.03;;;16.70;99.90;;;;;;5095076;28;20119;-25
2023/10/09 12:14:53;;;;;;;13.40;4.00;;;16.80;99.90;;;;;;5095410;28;20050;-24
2023/10/09 12:17:18;;;;;;;13.52;4.70;;;16.50;99.90;;;;;;5095301;28;20044;-24
2023/10/09 12:19:44;;;;;;;10.02;3.83;;;16.60;99.90;;;;;;5095206;28;20130;-23
2023/10/09 12:22:10;;;;;;;10.75;3.60;;;16.10;99.90;;;;;;5095152;28;20044;-23
2023/10/09 12:24:37;;;;;;;12.20;4.55;;;16.80;99.90;;;;;;5095005;28;20051;-23
2023/10/09 12:27:09;;;;;;;11.00;3.97;;;16.90;99.90;;;;;;5095392;28;20120;-23
2023/10/09 12:29:35;;;;;;;10.82;3.38;;;16.70;99.90;;;;;;5095128;28;20047;-23
2023/10/09 12:32:02;;;;;;;13.20;3.45;;;16.70;99.90;;;;;;5095744;28;20040;-23
2023/10/09 12:34:30;;;;;;;7.28;2.75;;;16.60;99.90;;;;;;5094294;28;20063;-23
2023/10/09 12:37:01;;;;;;;11.32;3.65;;;16.60;99.90;;;;;;5094932;28;20052;-24
2023/10/09 12:39:40;;;;;;;12.60;2.80;;;16.60;99.90;;;;;;5095175;28;20040;-22
2023/10/09 12:42:06;;;;;;;12.35;3.92;;;16.80;99.90;;;;;;5094024;28;20084;-23
2023/10/09 12:44:39;;;;;;;8.73;3.42;;;16.50;99.90;;;;;;5095381;28;20051;-22
2023/10/09 12:47:07;;;;;;;14.55;3.85;;;16.60;99.90;;;;;;5094799;28;20413;-22
2023/10/09 12:49:33;;;;;;;11.95;4.00;;;16.70;99.90;;;;;;5094692;28;20055;-23
2023/10/09 12:51:59;;;;;;;11.07;3.85;;;16.80;99.90;;;;;;5094615;28;20070;-22
2023/10/09 12:54:28;;;;;;;8.07;2.75;;;16.80;99.90;;;;;;5093448;28;20040;-23
2023/10/09 12:56:59;;;;;;;7.60;2.42;;;16.70;99.90;;;;;;5094575;28;20403;-22
2023/10/09 12:59:25;;;;;;;8.93;3.08;;;16.90;99.90;;;;;;5094433;28;20055;-22
2023/10/09 13:01:57;;;;;;;8.68;2.85;;;16.90;99.90;;;;;;5094511;28;20122;-22
2023/10/09 13:04:23;;;;;;;12.60;3.10;;;17.00;99.90;;;;;;5093965;28;20053;-22
2023/10/09 13:06:54;;;;;;;11.63;2.47;;;16.80;99.90;;;;;;5093417;28;20047;-22
2023/10/09 13:09:35;;;;;;;10.52;3.40;;;16.60;99.90;;;;;;5094709;28;20052;-21
2023/10/09 13:12:01;;;;;;;9.55;2.78;;;16.70;99.90;;;;;;5094257;28;20040;-21
2023/10/09 13:14:27;;;;;;;10.07;3.13;;;16.70;99.90;;;;;;5076454;28;20097;-21
2023/10/09 13:16:53;;;;;;;9.25;2.50;;;16.80;99.90;;;;;;5093938;28;20505;-21
2023/10/09 13:19:24;;;;;;;11.55;3.22;;;16.90;99.90;;;;;;5093048;28;20052;-21
2023/10/09 13:21:50;;;;;;;8.93;2.53;;;16.90;99.90;;;;;;5094758;28;20036;-21
2023/10/09 13:24:16;;;;;;;8.77;2.63;;;17.00;99.90;;;;;;5094065;28;20046;-22
2023/10/09 13:26:46;;;;;;;7.60;2.83;;;16.90;99.90;;;;;;5094067;28;20048;-21
2023/10/09 13:29:13;;;;;;;7.82;2.70;;;16.90;99.90;;;;;;5094102;28;20123;-21
2023/10/09 13:31:46;;;;;;;9.55;2.85;;;17.00;99.90;;;;;;5092753;28;20040;-21
2023/10/09 13:34:15;;;;;;;8.80;2.78;;;17.00;99.90;;;;;;5093193;28;20076;-21
2023/10/09 13:36:49;;;;;;;14.48;3.53;;;16.90;99.90;;;;;;5093618;28;20406;-21
2023/10/09 13:39:24;;;;;;;12.95;3.42;;;16.90;99.90;;;;;;5093942;28;20048;-21
2023/10/09 13:42:01;;;;;;;9.40;3.67;;;16.90;99.90;;;;;;5094477;28;20193;-21
2023/10/09 13:44:31;;;;;;;10.15;3.88;;;16.90;99.90;;;;;;5093898;28;20142;-21
2023/10/09 13:47:01;;;;;;;9.70;3.17;;;16.90;99.90;;;;;;5093835;28;20110;-21
2023/10/09 13:49:30;;;;;;;9.93;3.15;;;16.80;99.90;;;;;;5094638;28;20087;-21
2023/10/09 13:51:57;;;;;;;11.15;3.40;;;16.60;99.90;;;;;;5075501;28;20109;-21
2023/10/09 13:57:04;;;;;;;7.68;2.65;;;16.50;99.90;;;;;;5100469;28;20108;-21
2023/10/09 13:59:30;;;;;;;7.50;2.50;;;16.40;99.90;;;;;;5099370;28;20447;-20
2023/10/09 14:01:59;;;;;;;11.18;3.13;;;16.40;99.90;;;;;;5099266;28;20496;-20
2023/10/09 14:04:28;;;;;;;9.48;2.65;;;16.40;99.90;;;;;;5100713;28;20048;-21
2023/10/09 14:06:58;;;;;;;12.27;2.45;;;16.30;99.90;;;;;;5100660;28;20059;-20
2023/10/09 14:09:27;;;;;;;13.10;2.90;;;16.30;99.90;;;;;;5100408;28;20047;-20
2023/10/09 14:12:07;;;;;;;11.75;3.05;;;16.10;99.90;;;;;;5100827;28;20055;-21
2023/10/09 14:14:38;;;;;;;13.48;3.10;;;16.10;99.90;;;;;;5100356;28;20044;-20
2023/10/09 14:17:13;;;;;;;8.82;2.72;;;16.30;99.90;;;;;;5100357;28;20157;-20
2023/10/09 14:19:41;;;;;;;11.70;3.90;;;16.30;99.90;;;;;;5100896;28;20371;-20
2023/10/09 14:22:07;;;;;;;9.77;2.65;;;16.40;99.90;;;;;;5100317;28;20047;-20
2023/10/09 14:24:34;;;;;;;12.98;3.80;;;16.40;99.90;;;;;;5100211;28;20048;-20
2023/10/09 14:27:04;;;;;;;11.80;3.50;;;16.40;99.90;;;;;;5098933;28;20052;-21
2023/10/09 14:29:31;;;;;;;8.80;3.28;;;16.50;99.90;;;;;;5099165;28;20052;-21
2023/10/09 14:32:00;;;;;;;15.75;3.90;;;16.30;99.90;;;;;;5099743;28;20486;-20
2023/10/09 14:34:32;;;;;;;7.20;2.45;;;16.40;99.90;;;;;;5098983;28;20076;-21
2023/10/09 14:37:00;;;;;;;10.05;2.72;;;16.40;99.90;;;;;;5100417;28;20380;-20
2023/10/09 14:39:27;;;;;;;10.57;2.80;;;16.30;99.90;;;;;;5099134;28;20051;-20
2023/10/09 14:41:54;;;;;;;10.38;3.30;;;16.40;99.90;;;;;;5100087;28;20040;-21
2023/10/09 14:44:23;;;;;;;12.82;2.15;;;16.30;99.90;;;;;;5100080;28;20118;-20
2023/10/09 14:46:49;;;;;;;12.02;3.08;;;16.30;99.90;;;;;;5099990;28;20044;-21
2023/10/09 14:49:15;;;;;;;9.00;2.92;;;16.40;99.90;;;;;;5100444;28;20060;-20
2023/10/09 14:51:44;;;;;;;10.18;3.35;;;16.40;99.90;;;;;;5099997;28;20098;-20
2023/10/09 14:54:10;;;;;;;14.23;3.20;;;16.40;99.90;;;;;;5099921;28;20135;-21
2023/10/09 14:56:37;;;;;;;9.52;2.60;;;16.40;99.90;;;;;;5100764;28;20416;-21
2023/10/09 14:59:04;;;;;;;13.27;3.10;;;16.50;99.90;;;;;;5099927;28;20047;-20
2023/10/09 15:01:31;;;;;;;11.88;3.22;;;16.40;99.90;;;;;;5100125;28;20040;-20
2023/10/09 15:03:59;;;;;;;10.95;3.33;;;16.40;99.90;;;;;;5099892;28;20039;-20
2023/10/09 15:06:27;;;;;;;6.88;1.95;;;16.50;99.90;;;;;;5095506;28;20047;-20
2023/10/09 15:08:53;;;;;;;11.93;3.10;;;16.50;99.90;;;;;;5097227;28;20126;-20
2023/10/09 15:11:23;;;;;;;9.70;2.60;;;16.50;99.90;;;;;;5097143;28;20180;-21
2023/10/09 15:13:49;;;;;;;9.77;1.75;;;16.40;99.90;;;;;;5097221;28;20462;-20
2023/10/09 15:16:15;;;;;;;6.40;2.28;;;16.30;99.90;;;;;;5096469;28;20091;-20
2023/10/09 15:18:41;;;;;;;10.18;2.60;;;16.40;99.90;;;;;;5096375;28;20137;-20